sensor_id;sensor_type;location;lat;lon;timestamp;P1;durP1;ratioP1;P2;durP2;ratioP2
64022;SDS011;50264;52.088;5.296;2022-07-29T00:00:44;5.2;;;2.8;;
64022;SDS011;50264;52.088;5.296;2022-07-29T00:02:32;3.9;;;3.5;;
64022;SDS011;50264;52.088;5.296;2022-07-29T00:06:06;5.4;;;2.8;;
64022;SDS011;50264;52.088;5.296;2022-07-29T00:07:53;3.7;;;3.5;;
64022;SDS011;50264;52.088;5.296;2022-07-29T00:09:40;3.3;;;3.1;;
64022;SDS011;50264;52.088;5.296;2022-07-29T00:11:27;6.0;;;3.4;;
64022;SDS011;50264;52.088;5.296;2022-07-29T00:13:14;5.2;;;4.7;;
64022;SDS011;50264;52.088;5.296;2022-07-29T00:15:01;3.8;;;3.5;;
64022;SDS011;50264;52.088;5.296;2022-07-29T00:18:34;4.61;;;4.0;;
64022;SDS011;50264;52.088;5.296;2022-07-29T00:20:20;6.5;;;4.3;;
64022;SDS011;50264;52.088;5.296;2022-07-29T00:22:06;3.8;;;3.5;;
64022;SDS011;50264;52.088;5.296;2022-07-29T00:23:53;6.0;;;3.9;;
64022;SDS011;50264;52.088;5.296;2022-07-29T00:25:40;4.7;;;3.3;;
64022;SDS011;50264;52.088;5.296;2022-07-29T00:27:26;3.8;;;3.4;;
64022;SDS011;50264;52.088;5.296;2022-07-29T00:30:58;3.5;;;3.2;;
64022;SDS011;50264;52.088;5.296;2022-07-29T00:32:44;3.8;;;3.3;;
64022;SDS011;50264;52.088;5.296;2022-07-29T00:37:33;3.7;;;3.1;;
64022;SDS011;50264;52.088;5.296;2022-07-29T00:39:19;3.3;;;2.8;;
64022;SDS011;50264;52.088;5.296;2022-07-29T00:41:05;2.8;;;2.4;;
64022;SDS011;50264;52.088;5.296;2022-07-29T00:42:51;6.2;;;3.1;;
64022;SDS011;50264;52.088;5.296;2022-07-29T00:44:38;4.8;;;2.5;;
64022;SDS011;50264;52.088;5.296;2022-07-29T00:46:25;4.2;;;2.9;;
64022;SDS011;50264;52.088;5.296;2022-07-29T00:49:59;2.9;;;2.7;;
64022;SDS011;50264;52.088;5.296;2022-07-29T00:51:46;5.4;;;3.3;;
64022;SDS011;50264;52.088;5.296;2022-07-29T00:53:35;3.6;;;3.3;;
64022;SDS011;50264;52.088;5.296;2022-07-29T00:55:22;5.4;;;2.8;;
64022;SDS011;50264;52.088;5.296;2022-07-29T00:57:09;4.3;;;3.2;;
64022;SDS011;50264;52.088;5.296;2022-07-29T00:58:57;3.5;;;2.4;;
64022;SDS011;50264;52.088;5.296;2022-07-29T01:02:32;5.11;;;2.4;;
64022;SDS011;50264;52.088;5.296;2022-07-29T01:04:18;3.3;;;2.8;;
64022;SDS011;50264;52.088;5.296;2022-07-29T01:06:05;4.1;;;3.0;;
64022;SDS011;50264;52.088;5.296;2022-07-29T01:07:53;2.7;;;2.5;;
64022;SDS011;50264;52.088;5.296;2022-07-29T01:09:43;4.5;;;2.5;;
64022;SDS011;50264;52.088;5.296;2022-07-29T01:11:32;3.9;;;3.0;;
64022;SDS011;50264;52.088;5.296;2022-07-29T01:15:07;3.4;;;2.6;;
64022;SDS011;50264;52.088;5.296;2022-07-29T01:16:56;3.0;;;2.7;;
64022;SDS011;50264;52.088;5.296;2022-07-29T01:19:00;4.41;;;2.8;;
64022;SDS011;50264;52.088;5.296;2022-07-29T01:21:12;5.0;;;3.0;;
64022;SDS011;50264;52.088;5.296;2022-07-29T01:24:11;3.4;;;2.8;;
64022;SDS011;50264;52.088;5.296;2022-07-29T01:26:49;3.4;;;2.9;;
64022;SDS011;50264;52.088;5.296;2022-07-29T01:28:47;4.0;;;3.0;;
64022;SDS011;50264;52.088;5.296;2022-07-29T01:30:45;7.1;;;3.3;;
64022;SDS011;50264;52.088;5.296;2022-07-29T01:32:37;2.9;;;2.6;;
64022;SDS011;50264;52.088;5.296;2022-07-29T01:34:25;2.8;;;2.6;;
64022;SDS011;50264;52.088;5.296;2022-07-29T01:38:13;2.8;;;2.6;;
64022;SDS011;50264;52.088;5.296;2022-07-29T01:40:08;6.7;;;2.9;;
64022;SDS011;50264;52.088;5.296;2022-07-29T01:42:09;2.9;;;2.7;;
64022;SDS011;50264;52.088;5.296;2022-07-29T01:44:02;2.9;;;2.6;;
64022;SDS011;50264;52.088;5.296;2022-07-29T01:46:01;3.5;;;2.5;;
64022;SDS011;50264;52.088;5.296;2022-07-29T01:47:54;3.7;;;2.4;;
64022;SDS011;50264;52.088;5.296;2022-07-29T01:49:50;2.7;;;2.5;;
64022;SDS011;50264;52.088;5.296;2022-07-29T01:51:41;4.7;;;2.7;;
64022;SDS011;50264;52.088;5.296;2022-07-29T01:53:37;4.3;;;3.5;;
64022;SDS011;50264;52.088;5.296;2022-07-29T01:55:38;5.8;;;3.6;;
64022;SDS011;50264;52.088;5.296;2022-07-29T01:57:30;3.6;;;3.3;;
64022;SDS011;50264;52.088;5.296;2022-07-29T02:01:07;3.8;;;3.0;;
64022;SDS011;50264;52.088;5.296;2022-07-29T02:02:56;3.8;;;3.0;;
64022;SDS011;50264;52.088;5.296;2022-07-29T02:04:48;6.5;;;3.6;;
64022;SDS011;50264;52.088;5.296;2022-07-29T02:06:37;6.5;;;3.6;;
64022;SDS011;50264;52.088;5.296;2022-07-29T02:08:26;5.11;;;3.3;;
64022;SDS011;50264;52.088;5.296;2022-07-29T02:10:16;5.8;;;3.6;;
64022;SDS011;50264;52.088;5.296;2022-07-29T02:12:08;3.0;;;2.8;;
64022;SDS011;50264;52.088;5.296;2022-07-29T02:15:47;3.4;;;3.1;;
64022;SDS011;50264;52.088;5.296;2022-07-29T02:17:38;7.6;;;3.1;;
64022;SDS011;50264;52.088;5.296;2022-07-29T02:19:30;2.7;;;2.5;;
64022;SDS011;50264;52.088;5.296;2022-07-29T02:21:19;3.8;;;2.7;;
64022;SDS011;50264;52.088;5.296;2022-07-29T02:23:10;3.0;;;2.7;;
64022;SDS011;50264;52.088;5.296;2022-07-29T02:24:59;3.5;;;3.0;;
64022;SDS011;50264;52.088;5.296;2022-07-29T02:26:47;4.3;;;2.4;;
64022;SDS011;50264;52.088;5.296;2022-07-29T02:30:23;5.11;;;2.4;;
64022;SDS011;50264;52.088;5.296;2022-07-29T02:32:11;3.6;;;2.6;;
64022;SDS011;50264;52.088;5.296;2022-07-29T02:34:02;2.7;;;2.5;;
64022;SDS011;50264;52.088;5.296;2022-07-29T02:35:52;2.6;;;2.4;;
64022;SDS011;50264;52.088;5.296;2022-07-29T02:37:40;5.7;;;2.8;;
64022;SDS011;50264;52.088;5.296;2022-07-29T02:39:29;4.0;;;3.0;;
64022;SDS011;50264;52.088;5.296;2022-07-29T02:41:18;3.1;;;2.8;;
64022;SDS011;50264;52.088;5.296;2022-07-29T02:44:56;5.8;;;3.3;;
64022;SDS011;50264;52.088;5.296;2022-07-29T02:46:45;5.6;;;5.0;;
64022;SDS011;50264;52.088;5.296;2022-07-29T02:48:37;4.1;;;3.7;;
64022;SDS011;50264;52.088;5.296;2022-07-29T02:50:29;4.61;;;4.2;;
64022;SDS011;50264;52.088;5.296;2022-07-29T02:52:21;3.7;;;3.4;;
64022;SDS011;50264;52.088;5.296;2022-07-29T02:54:19;6.0;;;4.1;;
64022;SDS011;50264;52.088;5.296;2022-07-29T02:56:10;5.4;;;4.91;;
64022;SDS011;50264;52.088;5.296;2022-07-29T02:58:01;3.7;;;3.4;;
64022;SDS011;50264;52.088;5.296;2022-07-29T03:01:43;3.7;;;3.3;;
64022;SDS011;50264;52.088;5.296;2022-07-29T03:03:32;6.6;;;4.1;;
64022;SDS011;50264;52.088;5.296;2022-07-29T03:05:21;4.0;;;3.6;;
64022;SDS011;50264;52.088;5.296;2022-07-29T03:07:08;4.0;;;3.7;;
64022;SDS011;50264;52.088;5.296;2022-07-29T03:08:59;4.91;;;4.41;;
64022;SDS011;50264;52.088;5.296;2022-07-29T03:10:47;4.61;;;4.3;;
64022;SDS011;50264;52.088;5.296;2022-07-29T03:14:22;5.8;;;3.2;;
64022;SDS011;50264;52.088;5.296;2022-07-29T03:16:10;4.3;;;3.5;;
64022;SDS011;50264;52.088;5.296;2022-07-29T03:17:58;7.3;;;3.8;;
64022;SDS011;50264;52.088;5.296;2022-07-29T03:19:45;5.3;;;3.8;;
64022;SDS011;50264;52.088;5.296;2022-07-29T03:21:32;7.2;;;3.6;;
64022;SDS011;50264;52.088;5.296;2022-07-29T03:23:22;3.6;;;3.3;;
64022;SDS011;50264;52.088;5.296;2022-07-29T03:26:59;4.5;;;3.3;;
64022;SDS011;50264;52.088;5.296;2022-07-29T03:28:46;3.6;;;3.0;;
64022;SDS011;50264;52.088;5.296;2022-07-29T03:30:33;3.6;;;3.0;;
64022;SDS011;50264;52.088;5.296;2022-07-29T03:32:19;4.1;;;3.6;;
64022;SDS011;50264;52.088;5.296;2022-07-29T03:34:06;6.2;;;3.0;;
64022;SDS011;50264;52.088;5.296;2022-07-29T03:35:52;4.61;;;3.8;;
64022;SDS011;50264;52.088;5.296;2022-07-29T03:39:25;9.1;;;4.61;;
64022;SDS011;50264;52.088;5.296;2022-07-29T03:41:16;4.5;;;3.0;;
64022;SDS011;50264;52.088;5.296;2022-07-29T03:43:05;4.61;;;3.3;;
64022;SDS011;50264;52.088;5.296;2022-07-29T03:44:56;4.5;;;4.2;;
64022;SDS011;50264;52.088;5.296;2022-07-29T03:46:45;5.3;;;3.4;;
64022;SDS011;50264;52.088;5.296;2022-07-29T03:48:36;4.0;;;3.6;;
64022;SDS011;50264;52.088;5.296;2022-07-29T03:50:25;4.1;;;3.8;;
64022;SDS011;50264;52.088;5.296;2022-07-29T03:54:00;3.8;;;3.5;;
64022;SDS011;50264;52.088;5.296;2022-07-29T03:55:48;5.11;;;4.7;;
64022;SDS011;50264;52.088;5.296;2022-07-29T03:57:40;3.9;;;3.5;;
64022;SDS011;50264;52.088;5.296;2022-07-29T03:59:28;7.3;;;3.9;;
64022;SDS011;50264;52.088;5.296;2022-07-29T04:01:18;4.91;;;4.5;;
64022;SDS011;50264;52.088;5.296;2022-07-29T04:03:06;3.6;;;3.3;;
64022;SDS011;50264;52.088;5.296;2022-07-29T04:06:42;6.4;;;3.1;;
64022;SDS011;50264;52.088;5.296;2022-07-29T04:08:31;3.1;;;2.9;;
64022;SDS011;50264;52.088;5.296;2022-07-29T04:10:18;7.1;;;3.8;;
64022;SDS011;50264;52.088;5.296;2022-07-29T04:12:05;6.6;;;4.2;;
64022;SDS011;50264;52.088;5.296;2022-07-29T04:13:52;4.8;;;3.4;;
64022;SDS011;50264;52.088;5.296;2022-07-29T04:15:38;4.3;;;3.9;;
64022;SDS011;50264;52.088;5.296;2022-07-29T04:19:11;4.41;;;4.1;;
64022;SDS011;50264;52.088;5.296;2022-07-29T04:21:00;5.9;;;4.0;;
64022;SDS011;50264;52.088;5.296;2022-07-29T04:22:47;4.3;;;3.7;;
64022;SDS011;50264;52.088;5.296;2022-07-29T04:24:34;4.8;;;4.0;;
64022;SDS011;50264;52.088;5.296;2022-07-29T04:26:20;3.8;;;3.5;;
64022;SDS011;50264;52.088;5.296;2022-07-29T04:28:08;4.61;;;3.5;;
64022;SDS011;50264;52.088;5.296;2022-07-29T04:31:42;3.3;;;3.1;;
64022;SDS011;50264;52.088;5.296;2022-07-29T04:33:29;4.8;;;3.9;;
64022;SDS011;50264;52.088;5.296;2022-07-29T04:35:15;6.5;;;4.1;;
64022;SDS011;50264;52.088;5.296;2022-07-29T04:37:01;6.5;;;3.7;;
64022;SDS011;50264;52.088;5.296;2022-07-29T04:38:49;6.1;;;4.2;;
64022;SDS011;50264;52.088;5.296;2022-07-29T04:40:36;4.61;;;4.2;;
64022;SDS011;50264;52.088;5.296;2022-07-29T04:44:08;4.61;;;3.8;;
64022;SDS011;50264;52.088;5.296;2022-07-29T04:45:54;4.3;;;3.7;;
64022;SDS011;50264;52.088;5.296;2022-07-29T04:47:40;5.2;;;3.9;;
64022;SDS011;50264;52.088;5.296;2022-07-29T04:49:27;4.3;;;3.9;;
64022;SDS011;50264;52.088;5.296;2022-07-29T04:51:14;4.61;;;4.2;;
64022;SDS011;50264;52.088;5.296;2022-07-29T04:54:48;4.2;;;3.8;;
64022;SDS011;50264;52.088;5.296;2022-07-29T04:56:35;4.1;;;3.7;;
64022;SDS011;50264;52.088;5.296;2022-07-29T04:58:23;7.5;;;4.8;;
64022;SDS011;50264;52.088;5.296;2022-07-29T05:00:10;4.61;;;4.2;;
64022;SDS011;50264;52.088;5.296;2022-07-29T05:01:57;3.7;;;3.5;;
64022;SDS011;50264;52.088;5.296;2022-07-29T05:03:43;5.5;;;5.0;;
64022;SDS011;50264;52.088;5.296;2022-07-29T05:07:17;6.3;;;4.61;;
64022;SDS011;50264;52.088;5.296;2022-07-29T05:09:03;5.2;;;4.8;;
64022;SDS011;50264;52.088;5.296;2022-07-29T05:10:51;6.8;;;4.91;;
64022;SDS011;50264;52.088;5.296;2022-07-29T05:12:37;4.61;;;4.3;;
64022;SDS011;50264;52.088;5.296;2022-07-29T05:14:23;4.91;;;4.3;;
64022;SDS011;50264;52.088;5.296;2022-07-29T05:16:10;4.41;;;4.0;;
64022;SDS011;50264;52.088;5.296;2022-07-29T05:19:42;6.2;;;4.91;;
64022;SDS011;50264;52.088;5.296;2022-07-29T05:21:30;5.0;;;4.61;;
64022;SDS011;50264;52.088;5.296;2022-07-29T05:23:16;5.7;;;5.3;;
64022;SDS011;50264;52.088;5.296;2022-07-29T05:25:03;5.3;;;4.8;;
64022;SDS011;50264;52.088;5.296;2022-07-29T05:26:50;5.2;;;4.8;;
64022;SDS011;50264;52.088;5.296;2022-07-29T05:30:23;5.8;;;5.3;;
64022;SDS011;50264;52.088;5.296;2022-07-29T05:32:10;7.1;;;4.91;;
64022;SDS011;50264;52.088;5.296;2022-07-29T05:33:58;5.9;;;4.7;;
64022;SDS011;50264;52.088;5.296;2022-07-29T05:35:44;5.6;;;5.11;;
64022;SDS011;50264;52.088;5.296;2022-07-29T05:37:30;6.4;;;5.9;;
64022;SDS011;50264;52.088;5.296;2022-07-29T05:39:17;8.1;;;4.91;;
64022;SDS011;50264;52.088;5.296;2022-07-29T05:42:50;5.8;;;5.3;;
64022;SDS011;50264;52.088;5.296;2022-07-29T05:44:38;7.0;;;6.5;;
64022;SDS011;50264;52.088;5.296;2022-07-29T05:46:25;9.1;;;6.6;;
64022;SDS011;50264;52.088;5.296;2022-07-29T05:48:12;6.7;;;6.1;;
64022;SDS011;50264;52.088;5.296;2022-07-29T05:49:58;7.4;;;5.9;;
64022;SDS011;50264;52.088;5.296;2022-07-29T05:51:44;6.3;;;5.7;;
64022;SDS011;50264;52.088;5.296;2022-07-29T05:55:17;10.0;;;6.0;;
64022;SDS011;50264;52.088;5.296;2022-07-29T05:57:04;7.7;;;6.9;;
64022;SDS011;50264;52.088;5.296;2022-07-29T05:58:52;6.3;;;5.7;;
64022;SDS011;50264;52.088;5.296;2022-07-29T06:00:39;6.1;;;5.7;;
64022;SDS011;50264;52.088;5.296;2022-07-29T06:02:26;6.2;;;5.6;;
64022;SDS011;50264;52.088;5.296;2022-07-29T06:04:12;6.3;;;5.7;;
64022;SDS011;50264;52.088;5.296;2022-07-29T06:07:45;7.1;;;6.4;;
64022;SDS011;50264;52.088;5.296;2022-07-29T06:09:32;6.8;;;6.3;;
64022;SDS011;50264;52.088;5.296;2022-07-29T06:11:19;6.7;;;4.91;;
64022;SDS011;50264;52.088;5.296;2022-07-29T06:13:05;6.5;;;5.9;;
64022;SDS011;50264;52.088;5.296;2022-07-29T06:14:51;5.7;;;5.2;;
64022;SDS011;50264;52.088;5.296;2022-07-29T06:18:24;6.2;;;5.8;;
64022;SDS011;50264;52.088;5.296;2022-07-29T06:20:10;7.1;;;6.1;;
64022;SDS011;50264;52.088;5.296;2022-07-29T06:21:57;6.3;;;5.3;;
64022;SDS011;50264;52.088;5.296;2022-07-29T06:23:45;10.0;;;5.2;;
64022;SDS011;50264;52.088;5.296;2022-07-29T06:25:34;6.6;;;6.2;;
64022;SDS011;50264;52.088;5.296;2022-07-29T06:27:20;7.9;;;7.2;;
64022;SDS011;50264;52.088;5.296;2022-07-29T06:30:54;6.8;;;6.3;;
64022;SDS011;50264;52.088;5.296;2022-07-29T06:32:42;7.6;;;6.9;;
64022;SDS011;50264;52.088;5.296;2022-07-29T06:34:28;6.9;;;6.4;;
64022;SDS011;50264;52.088;5.296;2022-07-29T06:36:14;7.7;;;7.0;;
64022;SDS011;50264;52.088;5.296;2022-07-29T06:38:01;8.0;;;7.5;;
64022;SDS011;50264;52.088;5.296;2022-07-29T06:41:00;5.9;;;5.4;;
64022;SDS011;50264;52.088;5.296;2022-07-29T06:42:46;6.6;;;6.1;;
64022;SDS011;50264;52.088;5.296;2022-07-29T06:44:33;7.8;;;6.9;;
64022;SDS011;50264;52.088;5.296;2022-07-29T06:46:20;6.4;;;5.9;;
64022;SDS011;50264;52.088;5.296;2022-07-29T06:48:08;6.6;;;5.9;;
64022;SDS011;50264;52.088;5.296;2022-07-29T06:51:41;9.9;;;7.1;;
64022;SDS011;50264;52.088;5.296;2022-07-29T06:53:27;7.3;;;6.7;;
64022;SDS011;50264;52.088;5.296;2022-07-29T06:55:15;7.2;;;6.6;;
64022;SDS011;50264;52.088;5.296;2022-07-29T06:57:02;8.2;;;6.1;;
64022;SDS011;50264;52.088;5.296;2022-07-29T06:58:48;7.8;;;7.0;;
64022;SDS011;50264;52.088;5.296;2022-07-29T07:02:21;6.2;;;5.6;;
64022;SDS011;50264;52.088;5.296;2022-07-29T07:04:08;7.9;;;7.3;;
64022;SDS011;50264;52.088;5.296;2022-07-29T07:05:55;10.0;;;5.8;;
64022;SDS011;50264;52.088;5.296;2022-07-29T07:07:43;6.3;;;5.7;;
64022;SDS011;50264;52.088;5.296;2022-07-29T07:09:29;11.9;;;6.2;;
64022;SDS011;50264;52.088;5.296;2022-07-29T07:11:15;9.0;;;7.2;;
64022;SDS011;50264;52.088;5.296;2022-07-29T07:14:49;7.1;;;6.4;;
64022;SDS011;50264;52.088;5.296;2022-07-29T07:16:35;6.7;;;6.1;;
64022;SDS011;50264;52.088;5.296;2022-07-29T07:18:22;6.4;;;5.9;;
64022;SDS011;50264;52.088;5.296;2022-07-29T07:20:08;6.1;;;5.6;;
64022;SDS011;50264;52.088;5.296;2022-07-29T07:21:55;8.4;;;5.0;;
64022;SDS011;50264;52.088;5.296;2022-07-29T07:23:42;8.4;;;5.0;;
64022;SDS011;50264;52.088;5.296;2022-07-29T07:27:14;6.7;;;6.2;;
64022;SDS011;50264;52.088;5.296;2022-07-29T07:29:00;5.11;;;4.8;;
64022;SDS011;50264;52.088;5.296;2022-07-29T07:30:47;4.7;;;4.3;;
64022;SDS011;50264;52.088;5.296;2022-07-29T07:32:34;5.2;;;4.7;;
64022;SDS011;50264;52.088;5.296;2022-07-29T07:34:21;5.6;;;5.0;;
64022;SDS011;50264;52.088;5.296;2022-07-29T07:37:53;5.9;;;5.11;;
64022;SDS011;50264;52.088;5.296;2022-07-29T07:39:41;7.0;;;6.4;;
64022;SDS011;50264;52.088;5.296;2022-07-29T07:41:27;6.7;;;5.9;;
64022;SDS011;50264;52.088;5.296;2022-07-29T07:43:14;6.3;;;5.8;;
64022;SDS011;50264;52.088;5.296;2022-07-29T07:45:00;5.6;;;5.2;;
64022;SDS011;50264;52.088;5.296;2022-07-29T07:46:46;7.8;;;7.0;;
64022;SDS011;50264;52.088;5.296;2022-07-29T07:50:21;9.81;;;9.1;;
64022;SDS011;50264;52.088;5.296;2022-07-29T07:52:07;9.0;;;8.2;;
64022;SDS011;50264;52.088;5.296;2022-07-29T07:53:54;10.9;;;9.9;;
64022;SDS011;50264;52.088;5.296;2022-07-29T07:55:40;8.31;;;7.6;;
64022;SDS011;50264;52.088;5.296;2022-07-29T07:57:29;9.21;;;8.5;;
64022;SDS011;50264;52.088;5.296;2022-07-29T07:59:15;11.8;;;10.1;;
64022;SDS011;50264;52.088;5.296;2022-07-29T08:02:49;8.0;;;7.3;;
64022;SDS011;50264;52.088;5.296;2022-07-29T08:04:36;7.2;;;6.5;;
64022;SDS011;50264;52.088;5.296;2022-07-29T08:06:24;8.4;;;7.9;;
64022;SDS011;50264;52.088;5.296;2022-07-29T08:08:11;13.0;;;12.1;;
64022;SDS011;50264;52.088;5.296;2022-07-29T08:09:57;12.6;;;11.8;;
64022;SDS011;50264;52.088;5.296;2022-07-29T08:13:30;8.9;;;8.31;;
64022;SDS011;50264;52.088;5.296;2022-07-29T08:15:16;10.4;;;9.6;;
64022;SDS011;50264;52.088;5.296;2022-07-29T08:17:03;9.0;;;8.4;;
64022;SDS011;50264;52.088;5.296;2022-07-29T08:18:49;8.6;;;8.0;;
64022;SDS011;50264;52.088;5.296;2022-07-29T08:20:35;7.9;;;7.3;;
64022;SDS011;50264;52.088;5.296;2022-07-29T08:22:23;8.31;;;7.6;;
64022;SDS011;50264;52.088;5.296;2022-07-29T08:26:59;9.4;;;8.71;;
64022;SDS011;50264;52.088;5.296;2022-07-29T08:28:46;6.3;;;5.9;;
64022;SDS011;50264;52.088;5.296;2022-07-29T08:32:20;9.71;;;8.71;;
64022;SDS011;50264;52.088;5.296;2022-07-29T08:34:08;10.5;;;7.7;;
64022;SDS011;50264;52.088;5.296;2022-07-29T08:35:55;6.6;;;5.0;;
64022;SDS011;50264;52.088;5.296;2022-07-29T08:37:42;9.31;;;6.7;;
64022;SDS011;50264;52.088;5.296;2022-07-29T08:39:28;6.2;;;5.6;;
64022;SDS011;50264;52.088;5.296;2022-07-29T08:41:15;12.1;;;7.5;;
64022;SDS011;50264;52.088;5.296;2022-07-29T08:44:53;9.5;;;8.81;;
64022;SDS011;50264;52.088;5.296;2022-07-29T08:46:41;8.4;;;7.6;;
64022;SDS011;50264;52.088;5.296;2022-07-29T08:48:28;9.6;;;8.1;;
64022;SDS011;50264;52.088;5.296;2022-07-29T08:50:15;8.0;;;5.7;;
64022;SDS011;50264;52.088;5.296;2022-07-29T08:52:02;13.8;;;6.3;;
64022;SDS011;50264;52.088;5.296;2022-07-29T08:53:49;8.5;;;7.7;;
64022;SDS011;50264;52.088;5.296;2022-07-29T08:57:26;8.31;;;6.7;;
64022;SDS011;50264;52.088;5.296;2022-07-29T08:59:13;8.4;;;5.3;;
64022;SDS011;50264;52.088;5.296;2022-07-29T09:01:01;6.8;;;3.8;;
64022;SDS011;50264;52.088;5.296;2022-07-29T09:02:49;10.6;;;4.91;;
64022;SDS011;50264;52.088;5.296;2022-07-29T09:04:42;5.7;;;4.0;;
64022;SDS011;50264;52.088;5.296;2022-07-29T09:06:31;4.8;;;4.2;;
64022;SDS011;50264;52.088;5.296;2022-07-29T09:08:23;6.1;;;5.5;;
64022;SDS011;50264;52.088;5.296;2022-07-29T09:11:56;5.2;;;4.1;;
64022;SDS011;50264;52.088;5.296;2022-07-29T09:13:46;6.3;;;5.2;;
64022;SDS011;50264;52.088;5.296;2022-07-29T09:15:32;6.1;;;4.41;;
64022;SDS011;50264;52.088;5.296;2022-07-29T09:17:33;5.4;;;4.61;;
64022;SDS011;50264;52.088;5.296;2022-07-29T09:19:26;6.9;;;6.3;;
64022;SDS011;50264;52.088;5.296;2022-07-29T09:22:28;24.2;;;8.71;;
64022;SDS011;50264;52.088;5.296;2022-07-29T09:24:15;159.6;;;49.6;;
64022;SDS011;50264;52.088;5.296;2022-07-29T09:26:05;1756.5;;;297.41;;
64022;SDS011;50264;52.088;5.296;2022-07-29T09:27:51;1999.9;;;794.9;;
64022;SDS011;50264;52.088;5.296;2022-07-29T09:29:38;1999.9;;;866.4;;
64022;SDS011;50264;52.088;5.296;2022-07-29T09:31:31;1999.9;;;849.5;;
64022;SDS011;50264;52.088;5.296;2022-07-29T09:35:16;1999.9;;;872.4;;
64022;SDS011;50264;52.088;5.296;2022-07-29T09:37:05;1435.7;;;350.5;;
64022;SDS011;50264;52.088;5.296;2022-07-29T09:38:56;1999.9;;;596.81;;
64022;SDS011;50264;52.088;5.296;2022-07-29T09:40:43;271.7;;;118.9;;
64022;SDS011;50264;52.088;5.296;2022-07-29T09:42:43;1726.6;;;342.4;;
64022;SDS011;50264;52.088;5.296;2022-07-29T09:44:45;11.4;;;8.81;;
64022;SDS011;50264;52.088;5.296;2022-07-29T09:46:34;10.5;;;9.5;;
64022;SDS011;50264;52.088;5.296;2022-07-29T09:48:23;41.3;;;27.7;;
64022;SDS011;50264;52.088;5.296;2022-07-29T09:50:10;9.9;;;8.5;;
64022;SDS011;50264;52.088;5.296;2022-07-29T09:53:50;58.4;;;37.6;;
64022;SDS011;50264;52.088;5.296;2022-07-29T09:55:52;58.4;;;37.6;;
64022;SDS011;50264;52.088;5.296;2022-07-29T09:57:39;170.8;;;74.5;;
64022;SDS011;50264;52.088;5.296;2022-07-29T09:59:26;4.41;;;2.4;;
64022;SDS011;50264;52.088;5.296;2022-07-29T10:01:12;9.0;;;2.31;;
64022;SDS011;50264;52.088;5.296;2022-07-29T10:03:00;6.6;;;2.4;;
64022;SDS011;50264;52.088;5.296;2022-07-29T10:04:47;3.6;;;2.1;;
64022;SDS011;50264;52.088;5.296;2022-07-29T10:08:41;5.6;;;2.21;;
64022;SDS011;50264;52.088;5.296;2022-07-29T10:10:29;6.5;;;1.9;;
64022;SDS011;50264;52.088;5.296;2022-07-29T10:12:18;5.2;;;2.0;;
64022;SDS011;50264;52.088;5.296;2022-07-29T10:14:04;6.8;;;2.8;;
64022;SDS011;50264;52.088;5.296;2022-07-29T10:15:51;4.91;;;2.5;;
64022;SDS011;50264;52.088;5.296;2022-07-29T10:17:39;4.0;;;2.31;;
64022;SDS011;50264;52.088;5.296;2022-07-29T10:19:27;6.5;;;2.5;;
64022;SDS011;50264;52.088;5.296;2022-07-29T10:23:02;5.6;;;2.21;;
64022;SDS011;50264;52.088;5.296;2022-07-29T10:24:50;6.7;;;2.31;;
64022;SDS011;50264;52.088;5.296;2022-07-29T10:26:40;7.5;;;2.4;;
64022;SDS011;50264;52.088;5.296;2022-07-29T10:28:29;3.1;;;1.8;;
64022;SDS011;50264;52.088;5.296;2022-07-29T10:30:16;5.2;;;1.9;;
64022;SDS011;50264;52.088;5.296;2022-07-29T10:32:10;8.2;;;2.31;;
64022;SDS011;50264;52.088;5.296;2022-07-29T10:34:07;4.3;;;1.9;;
64022;SDS011;50264;52.088;5.296;2022-07-29T10:38:15;4.2;;;2.31;;
64022;SDS011;50264;52.088;5.296;2022-07-29T10:41:50;16.9;;;2.7;;
64022;SDS011;50264;52.088;5.296;2022-07-29T10:43:56;5.11;;;2.5;;
64022;SDS011;50264;52.088;5.296;2022-07-29T10:45:47;4.91;;;2.31;;
64022;SDS011;50264;52.088;5.296;2022-07-29T10:47:36;10.0;;;2.21;;
64022;SDS011;50264;52.088;5.296;2022-07-29T10:49:22;5.3;;;2.5;;
64022;SDS011;50264;52.088;5.296;2022-07-29T10:51:10;4.3;;;2.21;;
64022;SDS011;50264;52.088;5.296;2022-07-29T10:52:57;17.61;;;3.3;;
64022;SDS011;50264;52.088;5.296;2022-07-29T10:56:36;6.4;;;2.1;;
64022;SDS011;50264;52.088;5.296;2022-07-29T10:58:23;5.6;;;2.21;;
64022;SDS011;50264;52.088;5.296;2022-07-29T11:00:29;13.8;;;2.31;;
64022;SDS011;50264;52.088;5.296;2022-07-29T11:02:50;5.2;;;2.1;;
64022;SDS011;50264;52.088;5.296;2022-07-29T11:05:08;4.5;;;2.21;;
64022;SDS011;50264;52.088;5.296;2022-07-29T11:07:08;6.3;;;2.6;;
64022;SDS011;50264;52.088;5.296;2022-07-29T11:09:27;4.41;;;1.9;;
64022;SDS011;50264;52.088;5.296;2022-07-29T11:13:55;4.0;;;2.1;;
64022;SDS011;50264;52.088;5.296;2022-07-29T11:15:57;6.0;;;2.1;;
64022;SDS011;50264;52.088;5.296;2022-07-29T11:18:03;4.5;;;2.21;;
64022;SDS011;50264;52.088;5.296;2022-07-29T11:19:52;6.4;;;2.0;;
64022;SDS011;50264;52.088;5.296;2022-07-29T11:22:31;6.5;;;2.6;;
64022;SDS011;50264;52.088;5.296;2022-07-29T11:24:20;6.8;;;2.1;;
64022;SDS011;50264;52.088;5.296;2022-07-29T11:28:08;6.6;;;2.1;;
64022;SDS011;50264;52.088;5.296;2022-07-29T11:30:04;6.7;;;2.21;;
64022;SDS011;50264;52.088;5.296;2022-07-29T11:31:54;6.6;;;2.5;;
64022;SDS011;50264;52.088;5.296;2022-07-29T11:33:56;8.31;;;2.31;;
64022;SDS011;50264;52.088;5.296;2022-07-29T11:35:43;8.0;;;2.7;;
64022;SDS011;50264;52.088;5.296;2022-07-29T11:38:22;4.91;;;2.8;;
64022;SDS011;50264;52.088;5.296;2022-07-29T11:40:13;6.2;;;2.8;;
64022;SDS011;50264;52.088;5.296;2022-07-29T11:42:36;7.6;;;3.0;;
64022;SDS011;50264;52.088;5.296;2022-07-29T11:44:54;9.21;;;5.3;;
64022;SDS011;50264;52.088;5.296;2022-07-29T11:46:43;6.8;;;2.6;;
64022;SDS011;50264;52.088;5.296;2022-07-29T11:48:32;5.8;;;2.5;;
64022;SDS011;50264;52.088;5.296;2022-07-29T11:50:29;11.3;;;2.9;;
64022;SDS011;50264;52.088;5.296;2022-07-29T11:52:18;7.5;;;3.4;;
64022;SDS011;50264;52.088;5.296;2022-07-29T11:54:06;12.7;;;3.9;;
64022;SDS011;50264;52.088;5.296;2022-07-29T11:55:59;8.31;;;2.9;;
64022;SDS011;50264;52.088;5.296;2022-07-29T11:57:47;7.1;;;2.8;;
64022;SDS011;50264;52.088;5.296;2022-07-29T12:01:27;6.6;;;3.1;;
64022;SDS011;50264;52.088;5.296;2022-07-29T12:03:22;13.4;;;3.6;;
64022;SDS011;50264;52.088;5.296;2022-07-29T12:05:10;5.3;;;3.0;;
64022;SDS011;50264;52.088;5.296;2022-07-29T12:06:57;9.5;;;2.7;;
64022;SDS011;50264;52.088;5.296;2022-07-29T12:08:44;6.0;;;2.5;;
64022;SDS011;50264;52.088;5.296;2022-07-29T12:10:31;7.0;;;3.2;;
64022;SDS011;50264;52.088;5.296;2022-07-29T12:14:05;4.1;;;3.7;;
64022;SDS011;50264;52.088;5.296;2022-07-29T12:15:51;5.0;;;3.1;;
64022;SDS011;50264;52.088;5.296;2022-07-29T12:17:39;7.7;;;3.0;;
64022;SDS011;50264;52.088;5.296;2022-07-29T12:19:25;5.9;;;3.1;;
64022;SDS011;50264;52.088;5.296;2022-07-29T12:21:12;5.2;;;3.0;;
64022;SDS011;50264;52.088;5.296;2022-07-29T12:22:58;5.0;;;3.1;;
64022;SDS011;50264;52.088;5.296;2022-07-29T12:26:48;9.4;;;3.2;;
64022;SDS011;50264;52.088;5.296;2022-07-29T12:28:36;11.1;;;3.6;;
64022;SDS011;50264;52.088;5.296;2022-07-29T12:30:23;5.2;;;3.2;;
64022;SDS011;50264;52.088;5.296;2022-07-29T12:32:21;4.2;;;3.2;;
64022;SDS011;50264;52.088;5.296;2022-07-29T12:34:08;8.2;;;3.0;;
64022;SDS011;50264;52.088;5.296;2022-07-29T12:35:56;4.8;;;3.1;;
64022;SDS011;50264;52.088;5.296;2022-07-29T12:37:45;5.3;;;3.1;;
64022;SDS011;50264;52.088;5.296;2022-07-29T12:39:34;7.0;;;2.6;;
64022;SDS011;50264;52.088;5.296;2022-07-29T12:43:10;5.7;;;3.4;;
64022;SDS011;50264;52.088;5.296;2022-07-29T12:44:57;6.5;;;3.3;;
64022;SDS011;50264;52.088;5.296;2022-07-29T12:47:00;9.4;;;3.1;;
64022;SDS011;50264;52.088;5.296;2022-07-29T12:48:49;6.1;;;2.8;;
64022;SDS011;50264;52.088;5.296;2022-07-29T12:50:51;8.9;;;3.6;;
64022;SDS011;50264;52.088;5.296;2022-07-29T12:52:42;7.6;;;3.0;;
64022;SDS011;50264;52.088;5.296;2022-07-29T12:54:30;12.0;;;2.8;;
64022;SDS011;50264;52.088;5.296;2022-07-29T12:58:03;21.6;;;3.2;;
64022;SDS011;50264;52.088;5.296;2022-07-29T12:59:58;10.7;;;3.4;;
64022;SDS011;50264;52.088;5.296;2022-07-29T13:01:49;9.1;;;3.1;;
64022;SDS011;50264;52.088;5.296;2022-07-29T13:03:42;75.5;;;6.4;;
64022;SDS011;50264;52.088;5.296;2022-07-29T13:05:40;9.0;;;3.1;;
64022;SDS011;50264;52.088;5.296;2022-07-29T13:07:31;7.8;;;2.8;;